Time;durP1;ratioP1;P1;durP2;ratioP2;P2;SDS_P1;SDS_P2;PMS_P1;PMS_P2;Temp;Humidity;BMP_temperature;BMP_pressure;BME280_temperature;BME280_humidity;BME280_pressure;Samples;Min_cycle;Max_cycle;Signal;HPM_P1;HPM_P2
2021/08/16 00:01:48;;;;;;;16.93;6.17;;;;;;;18.33;100.00;100249.09;2619868;39;20785;-46
2021/08/16 00:04:18;;;;;;;11.57;5.23;;;;;;;18.31;100.00;100240.41;2637833;36;20438;-47
2021/08/16 00:06:47;;;;;;;21.70;6.53;;;;;;;18.25;100.00;100253.44;2618011;54;20890;-45
2021/08/16 00:09:19;;;;;;;15.23;6.00;;;;;;;18.10;100.00;100254.28;2666105;36;20767;-48
2021/08/16 00:11:49;;;;;;;13.37;5.57;;;;;;;17.98;100.00;100258.56;2619089;47;20452;-50
2021/08/16 00:14:19;;;;;;;21.90;7.10;;;;;;;18.01;100.00;100269.00;2620590;36;20439;-45
2021/08/16 00:16:48;;;;;;;11.70;5.07;;;;;;;17.81;100.00;100277.63;2618545;47;20426;-45
2021/08/16 00:19:18;;;;;;;15.10;5.78;;;;;;;17.97;100.00;100264.63;2637780;36;20423;-46
2021/08/16 00:21:47;;;;;;;12.60;6.27;;;;;;;18.02;100.00;100252.47;2617892;47;20186;-48
2021/08/16 00:24:20;;;;;;;14.40;6.57;;;;;;;18.12;100.00;100249.91;2647692;36;20442;-48
2021/08/16 00:26:49;;;;;;;18.77;8.90;;;;;;;18.17;100.00;100249.06;2618347;47;20415;-48
2021/08/16 00:29:19;;;;;;;32.03;16.77;;;;;;;18.16;100.00;100242.09;2619102;39;20712;-47
2021/08/16 00:31:48;;;;;;;33.80;17.95;;;;;;;18.15;100.00;100229.91;2619046;47;20440;-51
2021/08/16 00:34:18;;;;;;;23.88;12.65;;;;;;;18.10;100.00;100220.34;2618525;47;20165;-47
2021/08/16 00:36:47;;;;;;;11.57;5.53;;;;;;;18.04;100.00;100226.38;2636424;36;20194;-45
2021/08/16 00:39:19;;;;;;;9.70;4.77;;;;;;;17.92;100.00;100228.09;2637045;31;20742;-47
2021/08/16 00:41:50;;;;;;;11.87;5.20;;;;;;;17.87;100.00;100224.59;2619217;47;20439;-48
2021/08/16 00:44:20;;;;;;;14.05;5.55;;;;;;;17.82;100.00;100231.53;2640560;36;20419;-49
2021/08/16 00:46:50;;;;;;;17.47;6.33;;;;;;;17.75;100.00;100225.41;2618325;39;20472;-47
2021/08/16 00:49:19;;;;;;;16.13;6.60;;;;;;;17.63;100.00;100241.00;2660973;36;20459;-47
2021/08/16 00:51:49;;;;;;;11.30;5.33;;;;;;;17.66;100.00;100241.03;2617718;47;20454;-48
2021/08/16 00:54:22;;;;;;;20.43;7.57;;;;;;;17.72;100.00;100248.00;2664042;36;21372;-47
2021/08/16 00:56:51;;;;;;;10.63;5.07;;;;;;;17.66;100.00;100241.94;2619052;47;20391;-44
2021/08/16 00:59:21;;;;;;;15.80;6.25;;;;;;;17.60;100.00;100236.69;2622342;36;20423;-48
2021/08/16 01:01:51;;;;;;;14.48;6.90;;;;;;;17.53;100.00;100230.56;2619168;47;20203;-48
2021/08/16 01:04:20;;;;;;;26.43;10.40;;;;;;;17.62;100.00;100234.94;2617402;39;20217;-44
2021/08/16 01:06:50;;;;;;;12.60;5.30;;;;;;;17.36;100.00;100227.88;2620781;36;20452;-45
2021/08/16 01:09:22;;;;;;;24.43;8.07;;;;;;;17.51;100.00;100239.22;2618304;47;20448;-45
2021/08/16 01:11:52;;;;;;;13.97;7.47;;;;;;;17.53;100.00;100247.91;2615084;54;20918;-48
2021/08/16 01:14:22;;;;;;;18.33;7.20;;;;;;;17.51;100.00;100240.13;2620135;36;25652;-46
2021/08/16 01:16:52;;;;;;;21.60;10.00;;;;;;;17.62;100.00;100239.28;2619525;47;20431;-47
2021/08/16 01:19:23;;;;;;;31.40;12.73;;;;;;;17.59;100.00;100224.47;2645618;36;20466;-48
2021/08/16 01:21:52;;;;;;;15.77;7.27;;;;;;;17.59;100.00;100218.41;2619620;46;20486;-47
2021/08/16 01:24:25;;;;;;;23.80;10.00;;;;;;;17.59;100.00;100208.81;2637606;36;20446;-46
2021/08/16 01:26:57;;;;;;;14.60;6.87;;;;;;;17.50;100.00;100203.59;2619006;46;20431;-47
2021/08/16 01:29:26;;;;;;;11.20;6.00;;;;;;;17.40;100.00;100210.50;2622473;36;20428;-46
2021/08/16 01:32:00;;;;;;;20.57;6.83;;;;;;;17.38;100.00;100201.81;2619776;46;20447;-45
2021/08/16 01:34:29;;;;;;;16.60;5.07;;;;;;;17.34;100.00;100203.50;2620542;36;20419;-44
2021/08/16 01:36:59;;;;;;;14.13;8.17;;;;;;;17.34;100.00;100208.72;2619445;46;20413;-47
2021/08/16 01:39:29;;;;;;;13.68;5.43;;;;;;;17.30;100.00;100206.09;2665580;36;20423;-46
2021/08/16 01:42:01;;;;;;;15.30;6.00;;;;;;;17.20;100.00;100215.59;2618977;46;20187;-46
2021/08/16 01:44:30;;;;;;;11.23;5.80;;;;;;;17.11;100.00;100217.28;2621601;36;21520;-46
2021/08/16 01:47:00;;;;;;;8.25;5.20;;;;;;;17.04;100.00;100219.84;2619307;54;20411;-46
2021/08/16 01:49:29;;;;;;;7.53;4.90;;;;;;;17.13;100.00;100218.16;2620786;36;20208;-47
2021/08/16 01:51:59;;;;;;;13.80;6.57;;;;;;;17.16;100.00;100209.50;2619668;46;20460;-49
2021/08/16 01:54:28;;;;;;;13.23;6.53;;;;;;;17.02;100.00;100209.41;2641248;36;20438;-46
2021/08/16 01:57:00;;;;;;;11.50;4.97;;;;;;;16.98;100.00;100213.69;2619445;46;20416;-46
2021/08/16 01:59:30;;;;;;;12.63;6.37;;;;;;;17.00;100.00;100214.59;2620066;36;20190;-49
2021/08/16 02:01:59;;;;;;;14.27;6.60;;;;;;;17.00;100.00;100205.91;2619597;47;20451;-44
2021/08/16 02:04:29;;;;;;;11.00;5.65;;;;;;;17.05;100.00;100205.94;2637142;36;20979;-47
2021/08/16 02:06:58;;;;;;;13.53;6.07;;;;;;;17.07;100.00;100192.06;2618475;47;20155;-44
2021/08/16 02:09:28;;;;;;;10.80;6.83;;;;;;;16.99;100.00;100193.72;2665595;36;21797;-46
2021/08/16 02:11:57;;;;;;;12.30;5.97;;;;;;;16.98;100.00;100189.38;2619455;46;20456;-44
2021/08/16 02:14:29;;;;;;;13.33;5.90;;;;;;;17.03;100.00;100186.84;2645670;36;20425;-48
2021/08/16 02:16:59;;;;;;;15.27;6.50;;;;;;;17.00;100.00;100172.03;2617838;46;20425;-48
2021/08/16 02:19:29;;;;;;;12.13;5.97;;;;;;;16.91;100.00;100178.03;2644880;36;20461;-47
2021/08/16 02:21:58;;;;;;;10.93;5.80;;;;;;;16.85;100.00;100171.06;2619521;46;20451;-46
2021/08/16 02:24:28;;;;;;;9.33;5.60;;;;;;;16.84;100.00;100169.34;2650572;36;20527;-50
2021/08/16 02:26:57;;;;;;;11.87;5.70;;;;;;;16.73;100.00;100174.44;2618850;47;20886;-47
2021/08/16 02:29:29;;;;;;;11.43;5.73;;;;;;;16.69;100.00;100188.31;2650592;36;20440;-46
2021/08/16 02:31:59;;;;;;;15.57;6.47;;;;;;;16.70;100.00;100189.19;2618933;47;20910;-46
2021/08/16 02:34:29;;;;;;;12.47;6.40;;;;;;;16.70;100.00;100184.84;2623052;36;20504;-46
2021/08/16 02:36:58;;;;;;;14.93;6.20;;;;;;;16.67;100.00;100187.44;2619132;47;20883;-44
2021/08/16 02:39:28;;;;;;;12.43;6.10;;;;;;;16.67;100.00;100189.19;2624879;36;20461;-46
2021/08/16 02:41:57;;;;;;;12.88;6.60;;;;;;;16.60;100.00;100181.31;2619473;46;20193;-48
2021/08/16 02:44:29;;;;;;;20.08;6.18;;;;;;;16.58;100.00;100188.25;2638717;36;20202;-46
2021/08/16 02:46:59;;;;;;;14.00;6.80;;;;;;;16.58;100.00;100193.47;2618860;47;20183;-46
2021/08/16 02:49:28;;;;;;;13.37;6.53;;;;;;;16.58;100.00;100195.19;2662134;36;20426;-46
2021/08/16 02:51:58;;;;;;;14.87;6.40;;;;;;;16.53;100.00;100191.66;2618805;46;20479;-48
2021/08/16 02:54:27;;;;;;;14.27;7.38;;;;;;;16.50;100.00;100187.28;2623111;36;20463;-46
2021/08/16 02:56:57;;;;;;;12.87;6.40;;;;;;;16.37;100.00;100190.66;2619074;46;20152;-45
2021/08/16 02:59:26;;;;;;;20.27;7.13;;;;;;;16.39;100.00;100173.31;2649745;36;20408;-46
2021/08/16 03:01:58;;;;;;;17.20;7.30;;;;;;;16.31;100.00;100187.13;2619014;47;20443;-47
2021/08/16 03:04:28;;;;;;;11.03;7.10;;;;;;;16.50;100.00;100182.09;2638876;36;20917;-48
2021/08/16 03:06:57;;;;;;;20.27;10.20;;;;;;;16.45;100.00;100171.66;2618743;46;20415;-44
2021/08/16 03:09:28;;;;;;;15.70;7.40;;;;;;;16.50;100.00;100171.69;2622589;36;20438;-49
2021/08/16 03:11:58;;;;;;;18.93;7.30;;;;;;;16.58;100.00;100164.81;2619271;46;20524;-46
2021/08/16 03:14:27;;;;;;;23.60;8.33;;;;;;;16.65;100.00;100159.63;2620457;36;20411;-50
2021/08/16 03:16:59;;;;;;;14.23;7.10;;;;;;;16.64;100.00;100163.09;2618941;54;20404;-46
2021/08/16 03:19:29;;;;;;;20.23;7.40;;;;;;;16.60;100.00;100157.00;2631069;36;20460;-46
2021/08/16 03:21:59;;;;;;;16.53;7.67;;;;;;;16.62;100.00;100151.81;2619222;46;20526;-47
2021/08/16 03:24:30;;;;;;;14.18;7.00;;;;;;;16.62;100.00;100144.88;2674746;36;20451;-47
2021/08/16 03:27:00;;;;;;;16.47;6.97;;;;;;;16.65;100.00;100141.41;2618694;46;20149;-46
2021/08/16 03:29:29;;;;;;;13.18;7.22;;;;;;;16.74;100.00;100128.44;2637999;36;20408;-45
2021/08/16 03:32:02;;;;;;;13.77;7.07;;;;;;;16.73;100.00;100116.28;2618665;47;20186;-45
2021/08/16 03:34:31;;;;;;;15.13;7.37;;;;;;;16.68;100.00;100118.88;2663778;36;20403;-48
2021/08/16 03:37:01;;;;;;;17.53;7.30;;;;;;;16.80;100.00;100117.19;2619051;39;20739;-47
2021/08/16 03:39:30;;;;;;;16.60;7.70;;;;;;;16.86;100.00;100107.69;2629137;36;20506;-46
2021/08/16 03:42:00;;;;;;;17.70;7.50;;;;;;;16.76;100.00;100105.88;2619003;47;20917;-47
2021/08/16 03:44:29;;;;;;;14.50;7.37;;;;;;;16.71;100.00;100100.66;2628030;36;20417;-48
2021/08/16 03:47:01;;;;;;;18.23;8.23;;;;;;;16.62;100.00;100104.94;2618741;47;20400;-44
2021/08/16 03:49:31;;;;;;;17.17;7.50;;;;;;;16.64;100.00;100111.00;2628633;36;20496;-45
2021/08/16 03:52:01;;;;;;;13.37;7.20;;;;;;;16.59;100.00;100114.47;2617844;47;20428;-46
2021/08/16 03:54:30;;;;;;;16.37;8.23;;;;;;;16.73;100.00;100119.75;2667885;36;20399;-44
2021/08/16 03:57:00;;;;;;;16.07;8.50;;;;;;;16.68;100.00;100118.00;2618499;47;20396;-46
2021/08/16 03:59:29;;;;;;;18.97;8.70;;;;;;;16.66;100.00;100120.56;2621389;36;20435;-48
2021/08/16 04:02:01;;;;;;;17.30;8.70;;;;;;;16.65;100.00;100129.25;2619021;47;20427;-46
2021/08/16 04:04:31;;;;;;;19.65;8.98;;;;;;;16.60;100.00;100129.22;2623046;36;20435;-46
2021/08/16 04:07:01;;;;;;;21.90;9.37;;;;;;;16.66;100.00;100140.56;2618977;47;20151;-47
2021/08/16 04:09:30;;;;;;;16.90;9.60;;;;;;;16.76;100.00;100131.94;2618387;47;20424;-48
2021/08/16 04:12:00;;;;;;;15.77;8.43;;;;;;;16.63;100.00;100135.31;2618825;47;20462;-46
2021/08/16 04:14:29;;;;;;;19.73;9.77;;;;;;;16.58;100.00;100138.78;2644567;36;20197;-45
2021/08/16 04:17:01;;;;;;;20.48;9.88;;;;;;;16.55;100.00;100140.47;2617954;47;20152;-46
2021/08/16 04:19:31;;;;;;;16.80;9.83;;;;;;;16.42;100.00;100142.97;2642867;36;20187;-46
2021/08/16 04:22:00;;;;;;;23.20;9.10;;;;;;;16.31;100.00;100129.88;2619059;39;20980;-47
2021/08/16 04:24:30;;;;;;;18.33;9.60;;;;;;;16.30;100.00;100138.53;2663550;36;20380;-45
2021/08/16 04:26:59;;;;;;;17.47;8.27;;;;;;;16.42;100.00;100145.56;2618506;47;20412;-45
2021/08/16 04:29:29;;;;;;;21.67;9.83;;;;;;;16.38;100.00;100141.22;2665287;36;20424;-47
2021/08/16 04:31:58;;;;;;;19.70;10.07;;;;;;;16.33;100.00;100149.00;2618902;47;20462;-46
2021/08/16 04:34:31;;;;;;;22.47;10.40;;;;;;;16.27;100.00;100148.94;2647469;36;20957;-45
2021/08/16 04:37:00;;;;;;;30.03;10.83;;;;;;;16.30;100.00;100156.75;2618828;47;20403;-45
2021/08/16 04:39:29;;;;;;;26.80;10.93;;;;;;;16.38;100.00;100150.75;2637185;36;20422;-48
2021/08/16 04:41:59;;;;;;;21.00;11.30;;;;;;;16.43;100.00;100149.06;2618748;47;20175;-45
2021/08/16 04:44:28;;;;;;;19.13;9.73;;;;;;;16.42;100.00;100150.78;2636831;36;20404;-47
2021/08/16 04:46:58;;;;;;;26.20;9.90;;;;;;;16.34;100.00;100149.84;2618387;47;20431;-46
2021/08/16 04:49:27;;;;;;;27.23;12.63;;;;;;;16.45;100.00;100147.34;2665993;36;20389;-46
2021/08/16 04:51:59;;;;;;;23.83;12.17;;;;;;;16.48;100.00;100142.16;2619502;46;20450;-44
2021/08/16 04:54:29;;;;;;;25.60;12.10;;;;;;;16.33;100.00;100135.09;2632159;36;20505;-47
2021/08/16 04:56:58;;;;;;;28.13;12.93;;;;;;;16.47;100.00;100128.25;2619574;46;20403;-44
2021/08/16 04:59:28;;;;;;;25.45;13.55;;;;;;;16.45;100.00;100130.00;2665847;36;20407;-45
2021/08/16 05:01:57;;;;;;;25.50;14.23;;;;;;;16.49;100.00;100127.41;2618510;47;20633;-49
2021/08/16 05:04:27;;;;;;;24.60;13.73;;;;;;;16.49;100.00;100122.19;2639083;36;20788;-48
2021/08/16 05:06:56;;;;;;;25.80;13.13;;;;;;;16.46;100.00;100110.91;2618882;46;20508;-48
2021/08/16 05:09:28;;;;;;;30.43;14.37;;;;;;;16.44;100.00;100111.75;2625232;36;20405;-44
2021/08/16 05:11:58;;;;;;;31.85;14.80;;;;;;;16.54;100.00;100108.34;2619581;47;20455;-49
2021/08/16 05:14:27;;;;;;;26.55;15.52;;;;;;;16.46;100.00;100107.44;2647427;36;20163;-44
2021/08/16 05:16:57;;;;;;;24.23;14.47;;;;;;;16.63;100.00;100107.56;2618391;46;20173;-45
2021/08/16 05:19:26;;;;;;;30.42;15.60;;;;;;;16.54;100.00;100110.97;2637479;36;20438;-45
2021/08/16 05:21:55;;;;;;;26.10;14.80;;;;;;;16.49;100.00;100112.66;2619286;46;20204;-48
2021/08/16 05:24:28;;;;;;;29.07;15.10;;;;;;;16.68;100.00;100108.47;2619046;46;20435;-46
2021/08/16 05:27:00;;;;;;;39.70;15.00;;;;;;;16.64;100.00;100113.63;2619588;46;20427;-49
2021/08/16 05:29:29;;;;;;;27.37;12.20;;;;;;;16.71;100.00;100121.47;2642483;36;20171;-45
2021/08/16 05:31:59;;;;;;;29.70;13.83;;;;;;;16.70;100.00;100113.66;2619140;46;20439;-44
2021/08/16 05:34:28;;;;;;;30.47;14.27;;;;;;;16.73;100.00;100113.69;2623712;36;20431;-48
2021/08/16 05:36:58;;;;;;;32.42;16.15;;;;;;;16.65;100.00;100110.16;2619256;47;20867;-47
2021/08/16 05:39:27;;;;;;;28.50;12.20;;;;;;;16.67;100.00;100111.03;2619695;46;20152;-49
2021/08/16 05:42:00;;;;;;;35.43;14.10;;;;;;;16.74;100.00;100123.25;2637002;36;20474;-50
2021/08/16 05:44:30;;;;;;;23.50;13.17;;;;;;;16.75;100.00;100109.34;2647804;36;20421;-48
2021/08/16 05:47:01;;;;;;;23.27;12.13;;;;;;;16.73;100.00;100106.72;2619331;47;20883;-48
2021/08/16 05:49:31;;;;;;;34.03;13.30;;;;;;;16.67;100.00;100098.03;2622578;36;20431;-46
2021/08/16 05:52:00;;;;;;;29.58;14.07;;;;;;;16.73;100.00;100101.53;2619512;47;20436;-48
2021/08/16 05:54:30;;;;;;;30.20;12.82;;;;;;;16.79;100.00;100105.03;2629354;36;20191;-43
2021/08/16 05:57:02;;;;;;;25.17;12.87;;;;;;;16.75;100.00;100104.13;2619900;39;20495;-44
2021/08/16 05:59:31;;;;;;;25.47;12.50;;;;;;;16.74;100.00;100098.06;2635377;36;20416;-43
2021/08/16 06:02:01;;;;;;;25.97;12.90;;;;;;;16.83;100.00;100096.38;2619529;47;20442;-47
2021/08/16 06:04:30;;;;;;;31.57;13.80;;;;;;;16.74;100.00;100103.28;2665596;36;20884;-46
2021/08/16 06:07:00;;;;;;;21.17;10.73;;;;;;;16.74;100.00;100099.81;2619257;47;20400;-45
2021/08/16 06:09:29;;;;;;;37.20;12.30;;;;;;;16.82;100.00;100090.28;2665575;36;20404;-49
2021/08/16 06:12:01;;;;;;;27.17;12.83;;;;;;;16.82;100.00;100089.44;2619959;39;20501;-47
2021/08/16 06:14:31;;;;;;;30.03;11.67;;;;;;;16.88;100.00;100100.75;2654865;36;20432;-44
2021/08/16 06:17:00;;;;;;;25.33;12.70;;;;;;;16.95;100.00;100096.44;2619214;47;20464;-46
2021/08/16 06:19:30;;;;;;;30.50;13.40;;;;;;;16.99;100.00;100097.31;2665671;36;20407;-48
2021/08/16 06:21:59;;;;;;;30.40;13.20;;;;;;;17.04;100.00;100099.97;2619426;47;20435;-48
2021/08/16 06:24:29;;;;;;;34.47;13.73;;;;;;;17.08;100.00;100099.13;2654996;36;21403;-47
2021/08/16 06:27:01;;;;;;;26.83;11.90;;;;;;;16.97;100.00;100088.63;2619037;46;20388;-47
2021/08/16 06:29:31;;;;;;;29.30;11.63;;;;;;;17.04;100.00;100087.84;2623293;36;20423;-47
2021/08/16 06:32:00;;;;;;;28.65;13.77;;;;;;;17.06;100.00;100083.50;2619521;46;20424;-46
2021/08/16 06:34:30;;;;;;;29.80;13.50;;;;;;;17.17;100.00;100082.69;2620620;36;20178;-46
2021/08/16 06:36:59;;;;;;;28.93;11.83;;;;;;;17.08;100.00;100073.94;2619222;46;20404;-45
2021/08/16 06:39:29;;;;;;;22.47;10.60;;;;;;;16.94;100.00;100070.38;2669184;36;20400;-48
2021/08/16 06:42:01;;;;;;;25.80;12.00;;;;;;;17.12;100.00;100074.81;2618950;46;20427;-46
2021/08/16 06:44:31;;;;;;;31.63;12.90;;;;;;;17.13;100.00;100080.03;2630600;36;20368;-45
2021/08/16 06:47:01;;;;;;;24.97;11.87;;;;;;;17.03;100.00;100083.50;2619654;39;20720;-49
2021/08/16 06:49:30;;;;;;;29.20;11.20;;;;;;;17.08;100.00;100078.28;2649082;36;20392;-46
2021/08/16 06:52:00;;;;;;;38.23;13.87;;;;;;;17.19;100.00;100083.53;2618639;46;20456;-47
2021/08/16 06:54:29;;;;;;;28.45;11.80;;;;;;;17.04;100.00;100080.03;2618377;47;20450;-46
2021/08/16 06:57:04;;;;;;;20.10;10.90;;;;;;;17.05;100.00;100076.53;2619179;46;20171;-45
2021/08/16 06:59:35;;;;;;;22.50;11.93;;;;;;;17.07;100.00;100082.63;2650764;36;20404;-49
2021/08/16 07:02:04;;;;;;;23.33;11.43;;;;;;;16.97;100.00;100086.88;2618826;46;20436;-46
2021/08/16 07:04:38;;;;;;;21.57;11.90;;;;;;;17.13;100.00;100084.41;2665397;36;20412;-51
2021/08/16 07:07:08;;;;;;;20.30;10.70;;;;;;;17.18;100.00;100085.25;2619106;46;20407;-50
2021/08/16 07:09:37;;;;;;;23.50;10.87;;;;;;;17.11;100.00;100087.00;2676875;36;20712;-46
2021/08/16 07:12:10;;;;;;;26.13;10.60;;;;;;;17.19;100.00;100088.75;2618807;47;20905;-46
2021/08/16 07:14:39;;;;;;;19.47;9.37;;;;;;;17.06;100.00;100080.00;2627828;36;20416;-45
2021/08/16 07:17:09;;;;;;;21.67;10.35;;;;;;;17.13;100.00;100082.66;2618848;47;20413;-47
2021/08/16 07:19:38;;;;;;;19.03;8.03;;;;;;;17.13;100.00;100068.75;2648162;36;20203;-44
2021/08/16 07:22:08;;;;;;;25.37;9.27;;;;;;;17.23;100.00;100069.66;2619062;39;20769;-45
2021/08/16 07:24:37;;;;;;;24.87;9.87;;;;;;;17.13;100.00;100073.97;2643040;36;20420;-48
2021/08/16 07:27:09;;;;;;;25.93;9.40;;;;;;;17.26;100.00;100064.44;2618540;46;20396;-46
2021/08/16 07:29:39;;;;;;;26.20;11.00;;;;;;;17.22;100.00;100066.16;2628847;36;20435;-45
2021/08/16 07:32:09;;;;;;;18.50;8.57;;;;;;;17.16;100.00;100065.31;2619114;47;20913;-49
2021/08/16 07:34:39;;;;;;;20.20;8.05;;;;;;;17.17;100.00;100056.59;2640569;36;20432;-50
2021/08/16 07:37:09;;;;;;;20.20;8.60;;;;;;;17.14;100.00;100068.75;2618669;46;20158;-45
2021/08/16 07:39:39;;;;;;;21.43;9.00;;;;;;;17.07;100.00;100082.63;2641391;36;20444;-44
2021/08/16 07:42:11;;;;;;;24.77;10.00;;;;;;;16.78;100.00;100083.34;2618855;46;20436;-50
2021/08/16 07:44:40;;;;;;;27.20;11.97;;;;;;;16.62;100.00;100107.53;2642133;36;20486;-46
2021/08/16 07:47:10;;;;;;;27.20;11.47;;;;;;;16.54;100.00;100121.38;2618320;47;20424;-49
2021/08/16 07:49:39;;;;;;;32.37;11.57;;;;;;;16.41;100.00;100125.59;2664194;36;20400;-46
2021/08/16 07:52:09;;;;;;;30.60;11.90;;;;;;;16.47;100.00;100130.88;2619382;47;20432;-45
2021/08/16 07:54:38;;;;;;;33.90;11.40;;;;;;;16.41;100.00;100128.22;2651194;36;20440;-46
2021/08/16 07:57:10;;;;;;;33.70;12.83;;;;;;;16.39;100.00;100131.66;2617966;47;20428;-49
2021/08/16 07:59:40;;;;;;;24.27;13.03;;;;;;;16.51;100.00;100130.91;2618252;46;20416;-46
2021/08/16 08:02:09;;;;;;;24.67;13.00;;;;;;;16.54;100.00;100129.19;2636935;36;20817;-46
2021/08/16 08:04:39;;;;;;;32.57;13.40;;;;;;;16.53;100.00;100127.44;2629739;36;20431;-46
2021/08/16 08:07:08;;;;;;;44.05;24.20;;;;;;;16.60;100.00;100146.56;2619186;39;20759;-49
2021/08/16 08:09:38;;;;;;;40.60;16.27;;;;;;;16.66;100.00;100132.75;2618226;47;20151;-46
2021/08/16 08:12:10;;;;;;;53.33;22.47;;;;;;;16.56;100.00;100135.28;2636464;36;20480;-45
2021/08/16 08:14:40;;;;;;;28.53;13.83;;;;;;;16.45;100.00;100145.59;2645581;36;20416;-46
2021/08/16 08:17:09;;;;;;;48.77;26.30;;;;;;;16.52;100.00;100148.25;2617440;47;20458;-48
2021/08/16 08:19:38;;;;;;;38.37;18.77;;;;;;;16.24;100.00;100141.09;2665852;36;20759;-44
2021/08/16 08:22:08;;;;;;;24.23;9.53;;;;;;;16.14;100.00;100145.34;2618391;47;20412;-45
2021/08/16 08:24:37;;;;;;;22.90;10.63;;;;;;;16.16;100.00;100150.56;2619015;54;20979;-46
2021/08/16 08:27:07;;;;;;;38.70;16.00;;;;;;;16.09;100.00;100147.03;2619554;54;20403;-47
2021/08/16 08:29:39;;;;;;;13.43;6.07;;;;;;;16.01;100.00;100139.16;2631059;36;20431;-45
2021/08/16 08:32:10;;;;;;;16.63;5.63;;;;;;;16.09;100.00;100143.56;2619808;46;20443;-49
2021/08/16 08:34:39;;;;;;;15.13;7.72;;;;;;;16.05;100.00;100129.66;2619001;46;20451;-46
2021/08/16 08:37:13;;;;;;;13.83;5.43;;;;;;;16.32;100.00;100136.81;2636372;36;20182;-48
2021/08/16 08:39:43;;;;;;;16.38;5.95;;;;;;;16.49;100.00;100122.19;2648334;36;20413;-47
2021/08/16 08:42:13;;;;;;;17.37;8.83;;;;;;;16.57;100.00;100116.19;2619153;46;20178;-45
2021/08/16 08:44:46;;;;;;;18.05;9.63;;;;;;;16.63;100.00;100119.69;2647956;36;20418;-49
2021/08/16 08:47:15;;;;;;;17.47;7.37;;;;;;;16.72;100.00;100114.56;2617969;46;20166;-46
2021/08/16 08:49:45;;;;;;;24.27;11.40;;;;;;;16.85;100.00;100112.88;2643607;36;20862;-45
2021/08/16 08:52:14;;;;;;;13.57;6.20;;;;;;;17.07;100.00;100113.88;2618374;46;20179;-47
2021/08/16 08:54:44;;;;;;;16.75;7.65;;;;;;;16.98;100.00;100111.22;2617948;46;20435;-48
2021/08/16 08:57:33;;;;;;;22.30;10.17;;;;;;;17.22;100.00;100114.84;2619416;47;20903;-49
2021/08/16 09:00:07;;;;;;;24.13;9.40;;;;;;;17.04;100.00;100100.88;2629212;36;20917;-46
2021/08/16 09:02:36;;;;;;;58.53;16.30;;;;;;;17.19;100.00;100101.78;2619825;46;20466;-45
2021/08/16 09:05:07;;;;;;;30.13;14.23;;;;;;;17.29;100.00;100100.97;2646994;36;21134;-47
2021/08/16 09:07:38;;;;;;;23.23;10.60;;;;;;;17.11;100.00;100096.53;2620015;39;20707;-47
2021/08/16 09:10:13;;;;;;;19.17;9.43;;;;;;;17.31;100.00;100087.91;2633680;36;20441;-46
2021/08/16 09:12:44;;;;;;;36.77;15.10;;;;;;;17.45;100.00;100077.53;2619758;46;20443;-48
2021/08/16 09:15:21;;;;;;;21.23;10.90;;;;;;;17.43;100.00;100071.44;2623527;36;20482;-47
2021/08/16 09:17:51;;;;;;;22.67;9.73;;;;;;;17.33;100.00;100076.63;2619476;46;20482;-44
2021/08/16 09:20:23;;;;;;;17.87;9.40;;;;;;;17.01;100.00;100082.56;2641487;36;20836;-47
2021/08/16 09:23:00;;;;;;;27.57;9.90;;;;;;;16.83;100.00;100083.34;2619456;47;20458;-46
2021/08/16 09:25:34;;;;;;;30.60;10.73;;;;;;;16.79;100.00;100092.88;2639015;36;20504;-45
2021/08/16 09:28:05;;;;;;;30.33;14.50;;;;;;;16.55;100.00;100099.69;2618746;46;20475;-47
2021/08/16 09:30:38;;;;;;;30.83;15.27;;;;;;;16.44;100.00;100103.94;2666033;36;20435;-44
2021/08/16 09:33:16;;;;;;;26.23;12.67;;;;;;;16.27;100.00;100125.53;2619516;46;20419;-43
2021/08/16 09:35:55;;;;;;;26.40;12.13;;;;;;;16.17;100.00;100121.09;2654622;36;20994;-44
2021/08/16 09:38:35;;;;;;;32.90;14.00;;;;;;;16.11;100.00;100127.13;2620039;39;20722;-44
2021/08/16 09:41:07;;;;;;;30.57;16.23;;;;;;;16.15;100.00;100133.22;2637521;36;20206;-45
2021/08/16 09:43:36;;;;;;;37.03;15.83;;;;;;;16.02;100.00;100147.84;2620067;39;20771;-46
2021/08/16 09:46:17;;;;;;;40.77;11.97;;;;;;;15.97;100.00;100149.53;2631374;36;20438;-47
2021/08/16 09:48:57;;;;;;;40.83;15.50;;;;;;;16.06;100.00;100150.47;2619508;46;20492;-45
2021/08/16 09:51:28;;;;;;;30.67;15.07;;;;;;;16.01;100.00;100146.94;2618318;46;20453;-43
2021/08/16 09:53:59;;;;;;;44.83;18.77;;;;;;;16.11;100.00;100152.25;2619612;46;20403;-45
2021/08/16 09:56:29;;;;;;;27.57;11.60;;;;;;;15.97;100.00;100154.72;2618634;54;20432;-43
2021/08/16 09:58:59;;;;;;;25.30;13.33;;;;;;;15.99;100.00;100140.88;2619951;39;20716;-45
2021/08/16 10:01:32;;;;;;;20.63;13.30;;;;;;;16.06;100.00;100147.03;2675554;36;20815;-45
2021/08/16 10:04:02;;;;;;;39.03;16.57;;;;;;;16.04;100.00;100156.53;2619305;46;20403;-44
2021/08/16 10:06:32;;;;;;;41.97;14.57;;;;;;;16.07;100.00;100156.56;2623078;36;20447;-45
2021/08/16 10:09:03;;;;;;;21.00;10.53;;;;;;;15.97;100.00;100162.53;2619928;46;20413;-48
2021/08/16 10:11:33;;;;;;;27.30;10.60;;;;;;;15.84;100.00;100156.31;2666349;36;20765;-42
2021/08/16 10:14:03;;;;;;;12.50;7.40;;;;;;;15.88;100.00;100160.66;2618844;46;20427;-45
2021/08/16 10:16:39;;;;;;;12.60;7.10;;;;;;;15.87;100.00;100162.41;2618479;46;20412;-46
2021/08/16 10:19:12;;;;;;;11.93;7.73;;;;;;;15.87;100.00;100158.94;2618185;46;20512;-43
2021/08/16 10:21:42;;;;;;;17.37;8.50;;;;;;;15.90;100.00;100175.44;2627509;36;20938;-47
2021/08/16 10:24:18;;;;;;;16.00;6.80;;;;;;;15.87;100.00;100156.31;2618450;47;20408;-46
2021/08/16 10:26:57;;;;;;;11.00;6.97;;;;;;;15.92;100.00;100162.50;2644826;36;20193;-44
2021/08/16 10:29:28;;;;;;;12.43;7.57;;;;;;;15.90;100.00;100153.78;2633274;36;20590;-44
2021/08/16 10:32:01;;;;;;;30.97;10.50;;;;;;;16.00;100.00;100160.81;2617919;46;20403;-45
2021/08/16 10:34:35;;;;;;;19.20;9.10;;;;;;;16.08;100.00;100160.91;2641477;36;20745;-45
2021/08/16 10:37:08;;;;;;;17.40;8.77;;;;;;;16.16;100.00;100168.78;2618635;46;20429;-46
2021/08/16 10:39:39;;;;;;;16.30;9.43;;;;;;;16.15;100.00;100169.66;2619057;46;20415;-47
2021/08/16 10:42:11;;;;;;;12.90;8.30;;;;;;;16.18;100.00;100159.25;2619745;36;20460;-44
2021/08/16 10:44:43;;;;;;;13.70;8.00;;;;;;;16.04;100.00;100165.22;2636981;36;20396;-44
2021/08/16 10:47:29;;;;;;;12.20;8.90;;;;;;;16.06;100.00;100160.03;2618744;46;20401;-43
2021/08/16 10:50:07;;;;;;;10.57;7.30;;;;;;;16.01;100.00;100151.31;2665193;36;20443;-43
2021/08/16 10:52:37;;;;;;;11.40;6.80;;;;;;;16.09;100.00;100148.78;2619110;47;20427;-45
2021/08/16 10:55:11;;;;;;;16.80;7.00;;;;;;;16.01;100.00;100146.94;2650595;36;20454;-44
2021/08/16 10:57:41;;;;;;;20.10;7.53;;;;;;;15.92;100.00;100152.97;2617647;46;20404;-48
2021/08/16 11:00:13;;;;;;;14.33;6.90;;;;;;;15.98;100.00;100159.94;2618416;47;20166;-47
2021/08/16 11:02:46;;;;;;;15.17;6.87;;;;;;;15.85;100.00;100155.44;2619163;47;20447;-46
2021/08/16 11:05:17;;;;;;;19.20;6.23;;;;;;;15.77;100.00;100158.84;2629285;36;20491;-43
2021/08/16 11:07:46;;;;;;;22.73;7.20;;;;;;;15.73;100.00;100151.84;2618761;47;20430;-43
2021/08/16 11:10:16;;;;;;;16.53;6.23;;;;;;;15.63;100.00;100145.69;2640348;36;20444;-44
2021/08/16 11:12:46;;;;;;;13.40;5.00;;;;;;;15.49;100.00;100148.13;2618290;39;20778;-45
2021/08/16 11:15:18;;;;;;;11.53;4.40;;;;;;;15.53;100.00;100143.81;2617709;46;20399;-43
2021/08/16 11:17:50;;;;;;;13.70;7.23;;;;;;;15.44;100.00;100136.78;2618495;46;20903;-48
2021/08/16 11:20:21;;;;;;;10.13;6.20;;;;;;;15.34;100.00;100142.75;2631604;36;20921;-45
2021/08/16 11:22:54;;;;;;;14.30;6.87;;;;;;;15.36;100.00;100135.81;2618903;47;20918;-44